Airfield :
LOGIN :

Register | Disclaimer

   EN    FR    IT 

 










Legend :    VFR   Marginal VFR   IFR   Intensive IFR   Very Intensive IFR
Visi :
Ceiling :
>= 8 km
>= 3000ft
5 to 8 km
1000 to 3000 ft
1500m to 5 km
500 to 1000 ft
800 to 1500m
200 to 500 ft
< 800m
< 200 ft
Symbols :   Thunderstorms  Fog  Heavy snow  Heavy precipitations  Wind > 20 kt
SIGMETs :     Misc.  Thunderstorms  Icing  Turbulence  Mountain Waves  Volcanic Ashes






- Airport Elevation : 341 ft


EPMO - Modlin

CURRENT METAR :
  • 030130Z VRB02KT CAVOK 07/06 Q1007

EXPIRED METARs :
  • 030100Z VRB02KT CAVOK 07/06 Q1007
  • 030030Z VRB02KT CAVOK 07/06 Q1007
  • 030000Z 34002KT CAVOK 08/06 Q1008
  • 022330Z 35006KT CAVOK 09/06 Q1008
  • 022300Z 02005KT CAVOK 09/05 Q1008

TAF TAF EPMO
Valid from the 03 at 00:00 until the 04 at 00:00 UTC


022330Z 0300/0324 VRB04KT 9999 SCT045
BECMG 0304/0307 36010KT
TEMPO 0304/0318 -SHRA BKN025CB
PROB40
TEMPO 0306/0312 4500 SHRA SCT007 BKN012CB
BECMG 0319/0321 VRB02KT



MET'MAP, your aeronautical weather chart ! - Copyright ORBIFLY December 2007 - Disclaimer

ORBIFLY MET'MAP TEAM :

Programming & Development : Alexandra Zaïnal
Concept & original design : Baudouin d'Aumeries
Assistance for programming : Marc-Olivier Méhu
Technical & hardware support : Manuel Goepfert

Contact : metmap@orbifly.com




SOURCES & CREDITS :

   NOAA